EGJA Airport Information

Runway Information
Runway 03 Length 1630 ft width 121 ft
Elevation 277 ft Threshold 0 ft Heading 27
Runway 21 Length 1630 ft Width 121 ft
Elevation 285 ft Threshold 0 ft Heading 207
Runway 08 Length 2887 ft width 75 ft
Elevation 284 ft Threshold 0 ft Heading 80
Runway 26 Length 2887 ft Width 75 ft
Elevation 290 ft Threshold 0 ft Heading 260
Runway 14 Length 2402 ft width 121 ft
Elevation 268 ft Threshold 0 ft Heading 133
Runway 32 Length 2402 ft Width 121 ft
Elevation 277 ft Threshold 0 ft Heading 313
Airport Frequencies
Type APP Name GUERNSEY A Frequency 128.65 MHZ
Type GND Name GND Frequency 130.5 MHZ
Type TWR Name TWR Frequency 125.35 MHZ
Airport Navaids
Airport Weather Information & NOTAM
ADDS - METARS form results

(0640 UTC 18 September 2021)
Data provider http://aviationweather.gov/metar/data/
 
METAR text: EGJA 180620Z 11004KT CAVOK 17/16 Q1013
Conditions at: EGJA (ALDERNEY/CHANNEL, GB) observed 0620 UTC 18 September 2021
Temperature: 17.0°C (63°F)
Dewpoint: 16.0°C (61°F) [RH = 94%]
Pressure (altimeter): 29.91 inches Hg (1013.0 mb)
Winds: from the ESE (110 degrees) at 5 MPH (4 knots; 2.1 m/s)
Visibility: 6 or more miles (10+ km)
Ceiling: ceiling and visibility are OK
Clouds: unknown
Weather: no significant weather observed at this time

METAR text: EGJA 180550Z 10005KT 9999 SCT045 17/16 Q1013
Conditions at: EGJA (ALDERNEY/CHANNEL, GB) observed 0550 UTC 18 September 2021
Temperature: 17.0°C (63°F)
Dewpoint: 16.0°C (61°F) [RH = 94%]
Pressure (altimeter): 29.91 inches Hg (1013.0 mb)
Winds: from the E (100 degrees) at 6 MPH (5 knots; 2.6 m/s)
Visibility: 6 or more miles (10+ km)
Ceiling: at least 12,000 feet AGL
Clouds: scattered clouds at 4500 feet AGL
Weather: no significant weather observed at this time

Forecast for: AMD
Text: TAF AMD EGJA 180625Z 1806/1815 12007KT 9999 FEW012 BKN045
Forecast period: 0600 to 1500 UTC 18 September 2021
Forecast type: FROM: standard forecast or significant change
Winds: from the ESE (120 degrees) at 8 MPH (7 knots; 3.6 m/s)
Visibility: 6 or more miles (10+ km)
Ceiling: 4500 feet AGL
Clouds: few clouds at 1200 feet AGL
broken clouds at 4500 feet AGL
Weather: no significant weather forecast for this period
Text: PROB30
Forecast period: 0600 to 1500 UTC 18 September 2021
Forecast type: TEMPORARY: The following changes expected for less than half the time period
Visibility: 4 miles (6 km)
Ceiling: 1000 feet AGL
Clouds: scattered clouds at 300 feet AGL
broken clouds at 1000 feet AGL
Weather: SHRA  (rain showers)